createdAt,value
2019-02-24T00:01:19.434Z,0.00
2019-02-24T00:02:19.122Z,0.00
2019-02-24T00:03:19.143Z,0.00
2019-02-24T00:04:19.138Z,0.00
2019-02-24T00:05:19.383Z,0.00
2019-02-24T00:06:19.009Z,0.00
2019-02-24T00:07:19.569Z,0.00
2019-02-24T00:08:19.372Z,0.00
2019-02-24T00:09:19.001Z,0.00
2019-02-24T00:10:18.903Z,0.00
2019-02-24T00:11:18.865Z,0.00
2019-02-24T00:15:18.824Z,0.00
2019-02-24T00:17:18.683Z,0.00
2019-02-24T00:18:18.653Z,0.00
2019-02-24T00:19:18.652Z,0.00
2019-02-24T00:20:18.655Z,0.00
2019-02-24T00:21:18.964Z,0.00
2019-02-24T00:22:18.606Z,0.00
2019-02-24T00:23:18.605Z,0.00
2019-02-24T00:24:18.603Z,0.00
2019-02-24T00:25:18.472Z,0.00
2019-02-24T00:26:18.534Z,0.00
2019-02-24T00:27:18.420Z,0.00
2019-02-24T00:28:20.190Z,0.00
2019-02-24T00:29:18.358Z,0.00
2019-02-24T00:30:18.325Z,0.00
2019-02-24T00:31:18.300Z,0.00
2019-02-24T00:32:18.423Z,0.00
2019-02-24T00:33:18.369Z,0.00
2019-02-24T00:35:18.522Z,0.00
2019-02-24T00:36:18.156Z,0.00
2019-02-24T00:37:18.210Z,0.00
2019-02-24T00:38:18.160Z,0.00
2019-02-24T00:39:18.080Z,0.00
2019-02-24T00:40:18.157Z,0.00
2019-02-24T00:41:18.016Z,0.00
2019-02-24T00:42:18.323Z,0.00
2019-02-24T00:44:18.009Z,0.00
2019-02-24T00:45:17.916Z,0.00
2019-02-24T00:46:17.935Z,0.00
2019-02-24T00:47:17.847Z,0.00
2019-02-24T00:48:19.167Z,0.00
2019-02-24T00:49:17.808Z,0.00
2019-02-24T00:50:17.820Z,0.00
2019-02-24T00:51:18.103Z,0.00
2019-02-24T00:52:17.800Z,0.00
2019-02-24T00:54:18.116Z,0.00
2019-02-24T00:56:17.765Z,0.00
2019-02-24T00:58:17.683Z,0.00
2019-02-24T01:01:17.773Z,0.00
2019-02-24T01:03:17.477Z,0.00
2019-02-24T01:05:17.516Z,0.00
2019-02-24T01:06:17.325Z,0.00
2019-02-24T01:07:17.624Z,0.00
2019-02-24T01:08:17.379Z,0.00
2019-02-24T01:09:17.430Z,0.00
2019-02-24T01:10:17.297Z,0.00
2019-02-24T01:11:17.348Z,0.00
2019-02-24T01:12:17.157Z,0.00
2019-02-24T01:14:17.301Z,0.00
2019-02-24T01:15:17.123Z,0.00
2019-02-24T01:16:17.121Z,0.00
2019-02-24T01:17:17.022Z,0.00
2019-02-24T01:18:16.992Z,0.00
2019-02-24T01:19:17.279Z,0.00
2019-02-24T01:20:17.025Z,0.00
2019-02-24T01:21:16.957Z,0.00
2019-02-24T01:22:16.962Z,0.00
2019-02-24T01:23:16.922Z,0.00
2019-02-24T01:24:16.899Z,0.00
2019-02-24T01:25:16.814Z,0.00
2019-02-24T01:26:17.080Z,0.00
2019-02-24T01:28:24.879Z,0.00
2019-02-24T01:29:16.761Z,0.00
2019-02-24T01:30:16.719Z,0.00
2019-02-24T01:31:16.744Z,0.00
2019-02-24T01:32:17.002Z,0.00
2019-02-24T01:33:17.220Z,0.00
2019-02-24T01:34:16.594Z,0.00
2019-02-24T01:35:16.994Z,0.00
2019-02-24T01:36:16.591Z,0.00
2019-02-24T01:37:16.457Z,0.00
2019-02-24T01:39:16.453Z,0.00
2019-02-24T01:40:16.714Z,0.00
2019-02-24T01:41:16.366Z,0.00
2019-02-24T01:42:16.405Z,0.00
2019-02-24T01:43:16.294Z,0.00
2019-02-24T01:44:16.269Z,0.00
2019-02-24T01:45:16.355Z,0.00
2019-02-24T01:46:16.304Z,0.00
2019-02-24T01:47:16.494Z,0.00
2019-02-24T01:48:16.150Z,0.00
2019-02-24T01:50:16.099Z,0.00
2019-02-24T01:51:16.128Z,0.00
2019-02-24T01:52:16.048Z,0.00
2019-02-24T01:53:16.027Z,0.00
2019-02-24T01:54:16.295Z,0.00
2019-02-24T01:56:15.929Z,0.00
2019-02-24T01:57:16.055Z,0.00
2019-02-24T01:58:15.868Z,0.00
2019-02-24T02:01:16.099Z,0.00
2019-02-24T02:02:17.179Z,0.00
2019-02-24T02:04:15.893Z,0.00
2019-02-24T02:05:15.771Z,0.00
2019-02-24T02:06:15.666Z,0.00
2019-02-24T02:07:15.704Z,0.00
2019-02-24T02:08:15.903Z,0.00
2019-02-24T02:09:15.616Z,0.00
2019-02-24T02:10:15.560Z,0.00
2019-02-24T02:11:15.564Z,0.00
2019-02-24T02:12:15.475Z,0.00
2019-02-24T02:13:15.526Z,0.00
2019-02-24T02:14:15.834Z,0.00
2019-02-24T02:15:15.447Z,0.00
2019-02-24T02:16:15.375Z,0.00
2019-02-24T02:17:15.346Z,0.00
2019-02-24T02:18:15.365Z,0.00
2019-02-24T02:19:15.298Z,0.00
2019-02-24T02:20:15.566Z,0.00
2019-02-24T02:21:15.280Z,0.00
2019-02-24T02:22:15.205Z,0.00
2019-02-24T02:23:15.174Z,0.00
2019-02-24T02:24:15.142Z,0.00
2019-02-24T02:25:15.130Z,0.00
2019-02-24T02:26:15.405Z,0.00
2019-02-24T02:27:15.124Z,0.00
2019-02-24T02:28:15.045Z,0.00
2019-02-24T02:29:15.012Z,0.00
2019-02-24T02:30:14.983Z,0.00
2019-02-24T02:31:14.958Z,0.00
2019-02-24T02:32:15.243Z,0.00
2019-02-24T02:33:15.055Z,0.00
2019-02-24T02:34:14.864Z,0.00
2019-02-24T02:35:14.838Z,0.00
2019-02-24T02:36:14.810Z,0.00
2019-02-24T02:37:14.784Z,0.00
2019-02-24T02:38:15.067Z,0.00
2019-02-24T02:39:14.782Z,0.00
2019-02-24T02:40:14.707Z,0.00
2019-02-24T02:41:14.671Z,0.00
2019-02-24T02:42:14.645Z,0.00
2019-02-24T02:43:14.625Z,0.00
2019-02-24T02:44:14.995Z,0.00
2019-02-24T02:46:14.629Z,0.00
2019-02-24T02:47:14.653Z,0.00
2019-02-24T02:48:14.626Z,0.00
2019-02-24T02:49:14.588Z,0.00
2019-02-24T02:51:14.875Z,0.00
2019-02-24T02:52:14.898Z,0.00
2019-02-24T02:54:14.482Z,0.00
2019-02-24T02:55:14.462Z,0.00
2019-02-24T02:56:14.308Z,0.00
2019-02-24T02:57:14.347Z,0.00
2019-02-24T02:59:14.658Z,0.00
2019-02-24T03:00:14.278Z,0.00
2019-02-24T03:03:14.200Z,0.00
2019-02-24T03:04:14.434Z,0.00
2019-02-24T03:05:14.146Z,0.00
2019-02-24T03:07:14.088Z,0.00
2019-02-24T03:08:14.097Z,0.00
2019-02-24T03:09:13.974Z,0.00
2019-02-24T03:10:14.394Z,0.00
2019-02-24T03:11:14.419Z,0.00
2019-02-24T03:12:14.010Z,0.00
2019-02-24T03:13:14.272Z,0.00
2019-02-24T03:14:13.891Z,0.00
2019-02-24T03:15:13.875Z,0.00
2019-02-24T03:16:13.844Z,0.00
2019-02-24T03:17:13.831Z,0.00
2019-02-24T03:18:13.731Z,0.00
2019-02-24T03:19:13.733Z,0.00
2019-02-24T03:20:14.453Z,0.00
2019-02-24T03:21:13.954Z,0.00
2019-02-24T03:22:13.529Z,0.00
2019-02-24T03:23:13.561Z,0.00
2019-02-24T03:24:13.481Z,0.00
2019-02-24T03:25:13.470Z,0.00
2019-02-24T03:26:13.419Z,0.00
2019-02-24T03:27:13.705Z,0.00
2019-02-24T03:28:13.356Z,0.00
2019-02-24T03:29:13.381Z,0.00
2019-02-24T03:30:13.304Z,0.00
2019-02-24T03:31:13.293Z,0.00
2019-02-24T03:32:13.251Z,0.00
2019-02-24T03:33:13.515Z,0.00
2019-02-24T03:34:13.186Z,0.00
2019-02-24T03:35:13.209Z,0.00
2019-02-24T03:36:13.173Z,0.00
2019-02-24T03:37:13.106Z,0.00
2019-02-24T03:38:13.076Z,0.00
2019-02-24T03:39:13.348Z,0.00
2019-02-24T03:40:13.021Z,0.00
2019-02-24T03:41:13.041Z,0.00
2019-02-24T03:42:12.962Z,0.00
2019-02-24T03:43:12.932Z,0.00
2019-02-24T03:44:12.908Z,0.00
2019-02-24T03:45:13.186Z,0.00
2019-02-24T03:46:12.856Z,0.00
2019-02-24T03:47:12.903Z,0.00
2019-02-24T03:48:12.804Z,0.00
2019-02-24T03:51:13.015Z,0.00
2019-02-24T03:52:12.700Z,0.00
2019-02-24T03:53:12.757Z,0.00
2019-02-24T03:54:12.627Z,0.00
2019-02-24T03:55:12.600Z,0.00
2019-02-24T03:56:12.567Z,0.00
2019-02-24T03:57:12.892Z,0.00
2019-02-24T03:58:12.528Z,0.00
2019-02-24T03:59:15.335Z,0.00
2019-02-24T04:00:12.474Z,0.00
2019-02-24T04:01:12.431Z,0.00
2019-02-24T04:04:12.644Z,0.00
2019-02-24T04:05:12.475Z,0.00
2019-02-24T04:06:12.306Z,0.00
2019-02-24T04:07:12.264Z,0.00
2019-02-24T04:08:12.317Z,0.00
2019-02-24T04:09:12.416Z,0.00
2019-02-24T04:10:12.176Z,0.00
2019-02-24T04:11:12.714Z,0.00
2019-02-24T04:12:12.424Z,0.00
2019-02-24T04:13:12.236Z,0.00
2019-02-24T04:14:12.287Z,0.00
2019-02-24T04:15:12.099Z,0.00
2019-02-24T04:16:12.205Z,0.00
2019-02-24T04:18:12.275Z,0.00
2019-02-24T04:19:11.993Z,0.00
2019-02-24T04:20:11.983Z,0.00
2019-02-24T04:21:11.870Z,0.00
2019-02-24T04:22:11.847Z,0.00
2019-02-24T04:23:11.861Z,0.00
2019-02-24T04:24:11.785Z,0.00
2019-02-24T04:25:12.051Z,0.00
2019-02-24T04:26:11.810Z,0.00
2019-02-24T04:27:11.860Z,0.00
2019-02-24T04:28:11.666Z,0.00
2019-02-24T04:29:11.697Z,0.00
2019-02-24T04:30:11.612Z,0.00
2019-02-24T04:31:11.601Z,0.00
2019-02-24T04:32:11.863Z,0.00
2019-02-24T04:33:11.527Z,0.00
2019-02-24T04:34:11.514Z,0.00
2019-02-24T04:35:11.528Z,0.00
2019-02-24T04:36:11.464Z,0.00
2019-02-24T04:37:11.425Z,0.00
2019-02-24T04:38:11.401Z,0.00
2019-02-24T04:39:11.653Z,0.00
2019-02-24T04:40:11.334Z,0.00
2019-02-24T04:41:11.345Z,0.00
2019-02-24T04:42:11.284Z,0.00
2019-02-24T04:43:11.256Z,0.00
2019-02-24T04:45:11.510Z,0.00
2019-02-24T04:47:11.186Z,0.00
2019-02-24T04:48:11.109Z,0.00
2019-02-24T04:49:11.083Z,0.00
2019-02-24T04:50:11.042Z,0.00
2019-02-24T04:51:11.318Z,0.00
2019-02-24T04:53:11.034Z,0.00
2019-02-24T04:55:10.914Z,0.00
2019-02-24T04:57:11.180Z,0.00
2019-02-24T04:59:10.882Z,0.00
2019-02-24T05:00:10.774Z,0.00
2019-02-24T05:02:10.717Z,0.00
2019-02-24T05:03:12.114Z,0.00
2019-02-24T05:05:10.689Z,0.00
2019-02-24T05:06:10.606Z,0.00
2019-02-24T05:07:10.593Z,0.00
2019-02-24T05:08:10.548Z,0.00
2019-02-24T05:09:10.514Z,0.00
2019-02-24T05:10:10.491Z,0.00
2019-02-24T05:11:10.508Z,0.00
2019-02-24T05:12:10.466Z,0.00
2019-02-24T05:13:10.403Z,0.00
2019-02-24T05:14:10.397Z,0.00
2019-02-24T05:15:10.356Z,0.00
2019-02-24T05:16:10.640Z,0.00
2019-02-24T05:17:10.385Z,0.00
2019-02-24T05:18:10.262Z,0.00
2019-02-24T05:19:10.447Z,0.00
2019-02-24T05:20:10.230Z,0.00
2019-02-24T05:21:10.190Z,0.00
2019-02-24T05:22:10.441Z,0.00
2019-02-24T05:23:10.206Z,0.00
2019-02-24T05:24:10.155Z,0.00
2019-02-24T05:26:12.348Z,0.00
2019-02-24T05:29:11.688Z,0.00
2019-02-24T05:30:10.078Z,0.00
2019-02-24T05:33:10.107Z,0.00
2019-02-24T05:34:09.955Z,0.00
2019-02-24T05:35:10.016Z,0.00
2019-02-24T05:36:10.451Z,0.00
2019-02-24T05:37:09.831Z,0.00
2019-02-24T05:38:09.761Z,0.00
2019-02-24T05:39:09.666Z,0.00
2019-02-24T05:40:09.633Z,0.00
2019-02-24T05:41:09.647Z,0.00
2019-02-24T05:42:09.571Z,0.00
2019-02-24T05:43:09.906Z,0.00
2019-02-24T05:44:09.593Z,0.00
2019-02-24T05:45:09.485Z,0.00
2019-02-24T05:46:09.527Z,0.00
2019-02-24T05:48:09.404Z,0.00
2019-02-24T05:49:09.369Z,0.00
2019-02-24T05:50:09.648Z,0.00
2019-02-24T05:53:09.329Z,0.00
2019-02-24T05:54:09.306Z,0.00
2019-02-24T05:55:09.227Z,0.00
2019-02-24T05:56:09.174Z,0.00
2019-02-24T05:57:09.442Z,0.00
2019-02-24T05:58:09.129Z,0.00
2019-02-24T06:00:09.145Z,0.00
2019-02-24T06:02:09.007Z,0.00
2019-02-24T06:04:09.315Z,0.00
2019-02-24T06:06:09.293Z,0.00
2019-02-24T06:07:08.881Z,0.00
2019-02-24T06:08:08.855Z,0.00
2019-02-24T06:09:08.824Z,0.00
2019-02-24T06:10:09.127Z,0.00
2019-02-24T06:11:08.780Z,0.00
2019-02-24T06:12:08.970Z,0.00
2019-02-24T06:13:08.697Z,5.63
2019-02-24T06:14:08.691Z,5.63
2019-02-24T06:15:08.641Z,5.63
2019-02-24T06:16:08.952Z,5.63
2019-02-24T06:17:08.569Z,5.63
2019-02-24T06:18:08.612Z,5.63
2019-02-24T06:19:08.515Z,5.63
2019-02-24T06:20:08.515Z,5.63
2019-02-24T06:21:08.459Z,11.25
2019-02-24T06:22:08.731Z,11.25
2019-02-24T06:23:08.400Z,11.25
2019-02-24T06:24:08.674Z,11.25
2019-02-24T06:25:08.446Z,11.25
2019-02-24T06:26:08.317Z,11.25
2019-02-24T06:27:08.314Z,16.88
2019-02-24T06:28:08.646Z,16.88
2019-02-24T06:29:08.226Z,16.88
2019-02-24T06:30:08.269Z,16.88
2019-02-24T06:31:08.172Z,22.50
2019-02-24T06:32:08.146Z,22.50
2019-02-24T06:33:08.116Z,22.50
2019-02-24T06:34:08.383Z,22.50
2019-02-24T06:35:08.097Z,22.50
2019-02-24T06:36:08.134Z,28.13
2019-02-24T06:37:07.997Z,28.13
2019-02-24T06:38:07.980Z,28.13
2019-02-24T06:39:07.950Z,28.13
2019-02-24T06:40:08.239Z,33.75
2019-02-24T06:41:07.882Z,33.75
2019-02-24T06:42:07.920Z,33.75
2019-02-24T06:43:07.827Z,33.75
2019-02-24T06:44:07.802Z,39.38
2019-02-24T06:45:07.794Z,39.38
2019-02-24T06:46:08.071Z,39.38
2019-02-24T06:47:07.718Z,39.38
2019-02-24T06:48:07.779Z,45.00
2019-02-24T06:49:07.740Z,45.00
2019-02-24T06:51:07.614Z,50.63
2019-02-24T06:52:07.571Z,50.63
2019-02-24T06:53:07.848Z,50.63
2019-02-24T06:55:07.549Z,56.25
2019-02-24T06:56:07.459Z,56.25
2019-02-24T06:57:07.427Z,56.25
2019-02-24T06:59:07.685Z,61.88
2019-02-24T07:00:13.873Z,61.88
2019-02-24T07:01:07.311Z,61.88
2019-02-24T07:02:07.311Z,61.88
2019-02-24T07:05:07.521Z,67.50
2019-02-24T07:06:07.219Z,67.50
2019-02-24T07:09:08.503Z,73.13
2019-02-24T07:10:07.219Z,73.13
2019-02-24T07:11:07.102Z,73.13
2019-02-24T07:12:07.760Z,73.13
2019-02-24T07:13:07.081Z,78.75
2019-02-24T07:14:06.976Z,78.75
2019-02-24T07:15:06.940Z,78.75
2019-02-24T07:16:06.926Z,84.38
2019-02-24T07:17:06.897Z,84.38
2019-02-24T07:18:06.939Z,84.38
2019-02-24T07:19:07.157Z,90.00
2019-02-24T07:20:06.786Z,90.00
2019-02-24T07:21:06.750Z,90.00
2019-02-24T07:22:06.721Z,90.00
2019-02-24T07:23:06.689Z,90.00
2019-02-24T07:24:06.976Z,90.00
2019-02-24T07:25:06.652Z,90.00
2019-02-24T07:26:06.947Z,90.00
2019-02-24T07:27:06.584Z,95.63
2019-02-24T07:28:06.550Z,95.63
2019-02-24T07:29:06.534Z,95.63
2019-02-24T07:30:06.554Z,95.63
2019-02-24T07:31:06.480Z,95.63
2019-02-24T07:32:06.740Z,101.25
2019-02-24T07:33:06.418Z,101.25
2019-02-24T07:34:06.394Z,101.25
2019-02-24T07:35:06.366Z,106.88
2019-02-24T07:36:06.390Z,106.88
2019-02-24T07:37:12.792Z,106.88
2019-02-24T07:38:06.635Z,112.50
2019-02-24T07:39:06.281Z,112.50
2019-02-24T07:40:06.215Z,112.50
2019-02-24T07:41:06.209Z,112.50
2019-02-24T07:42:06.232Z,118.13
2019-02-24T07:43:06.129Z,118.13
2019-02-24T07:44:06.411Z,118.13
2019-02-24T07:45:06.099Z,123.75
2019-02-24T07:46:06.121Z,123.75
2019-02-24T07:47:06.038Z,123.75
2019-02-24T07:48:06.067Z,129.38
2019-02-24T07:49:06.061Z,129.38
2019-02-24T07:50:06.334Z,129.38
2019-02-24T07:51:06.007Z,129.38
2019-02-24T07:52:05.920Z,129.38
2019-02-24T07:53:05.863Z,129.38
2019-02-24T07:54:05.907Z,129.38
2019-02-24T07:55:05.885Z,129.38
2019-02-24T07:57:06.133Z,135.00
2019-02-24T07:58:05.767Z,135.00
2019-02-24T07:59:05.726Z,140.63
2019-02-24T08:00:05.778Z,140.63
2019-02-24T08:01:05.684Z,140.63
2019-02-24T08:02:05.742Z,140.63
2019-02-24T08:03:06.059Z,146.25
2019-02-24T08:04:05.583Z,146.25
2019-02-24T08:06:05.578Z,151.88
2019-02-24T08:09:05.862Z,151.88
2019-02-24T08:12:06.043Z,157.50
2019-02-24T08:13:06.100Z,163.13
2019-02-24T08:14:05.336Z,163.13
2019-02-24T08:15:05.331Z,163.13
2019-02-24T08:16:05.697Z,168.75
2019-02-24T08:17:05.266Z,168.75
2019-02-24T08:18:05.294Z,168.75
2019-02-24T08:19:05.232Z,174.38
2019-02-24T08:20:05.275Z,174.38
2019-02-24T08:21:05.242Z,180.00
2019-02-24T08:22:05.157Z,180.00
2019-02-24T08:23:05.482Z,180.00
2019-02-24T08:24:05.166Z,185.63
2019-02-24T08:25:05.084Z,185.63
2019-02-24T08:26:05.100Z,185.63
2019-02-24T08:27:05.037Z,191.25
2019-02-24T08:28:05.032Z,191.25
2019-02-24T08:29:05.064Z,191.25
2019-02-24T08:30:05.309Z,191.25
2019-02-24T08:31:05.032Z,196.88
2019-02-24T08:32:04.919Z,196.88
2019-02-24T08:33:04.888Z,202.50
2019-02-24T08:34:04.878Z,202.50
2019-02-24T08:35:04.910Z,208.13
2019-02-24T08:36:04.978Z,208.13
2019-02-24T08:37:05.207Z,213.75
2019-02-24T08:38:04.787Z,213.75
2019-02-24T08:39:04.772Z,219.38
2019-02-24T08:40:04.762Z,225.00
2019-02-24T08:41:04.789Z,225.00
2019-02-24T08:42:04.786Z,230.63
2019-02-24T08:43:04.672Z,236.25
2019-02-24T08:44:04.963Z,236.25
2019-02-24T08:45:04.646Z,236.25
2019-02-24T08:46:04.640Z,241.88
2019-02-24T08:47:04.636Z,247.50
2019-02-24T08:48:04.621Z,247.50
2019-02-24T08:49:04.550Z,253.13
2019-02-24T08:50:04.583Z,270.00
2019-02-24T08:51:04.852Z,270.00
2019-02-24T08:52:04.512Z,281.25
2019-02-24T08:53:04.458Z,286.88
2019-02-24T08:54:04.508Z,292.50
2019-02-24T08:55:04.652Z,303.75
2019-02-24T08:57:04.725Z,337.50
2019-02-24T08:58:04.434Z,348.75
2019-02-24T08:59:04.353Z,388.13
2019-02-24T09:01:04.321Z,736.88
2019-02-24T09:02:04.297Z,945.00
2019-02-24T09:03:04.571Z,1035.00
2019-02-24T09:04:04.255Z,1063.13
2019-02-24T09:05:04.328Z,1125.00
2019-02-24T09:06:04.384Z,1136.25
2019-02-24T09:07:04.264Z,1153.13
2019-02-24T09:08:04.221Z,1130.63
2019-02-24T09:09:04.574Z,1074.38
2019-02-24T09:10:04.275Z,1012.50
2019-02-24T09:11:04.112Z,984.38
2019-02-24T09:13:04.198Z,1260.00
2019-02-24T09:15:04.624Z,1327.50
2019-02-24T09:16:04.176Z,1158.75
2019-02-24T09:17:04.026Z,1141.88
2019-02-24T09:18:04.053Z,1231.88
2019-02-24T09:19:04.073Z,1327.50
2019-02-24T09:20:03.952Z,1316.25
2019-02-24T09:21:04.250Z,1141.88
2019-02-24T09:22:03.907Z,781.88
2019-02-24T09:23:03.928Z,1040.63
2019-02-24T09:24:03.864Z,1440.00
2019-02-24T09:25:03.900Z,1636.88
2019-02-24T09:26:03.833Z,1828.13
2019-02-24T09:27:04.192Z,1940.63
2019-02-24T09:28:03.864Z,1946.25
2019-02-24T09:29:03.778Z,2047.50
2019-02-24T09:30:03.798Z,2356.88
2019-02-24T09:31:03.812Z,2643.75
2019-02-24T09:32:03.749Z,2531.25
2019-02-24T09:33:03.704Z,2075.63
2019-02-24T09:34:03.994Z,1524.38
2019-02-24T09:35:03.713Z,1226.25
2019-02-24T09:36:03.660Z,1141.88
2019-02-24T09:37:03.690Z,1074.38
2019-02-24T09:38:03.713Z,1001.25
2019-02-24T09:39:03.640Z,928.13
2019-02-24T09:40:03.597Z,866.25
2019-02-24T09:41:03.874Z,826.88
2019-02-24T09:42:03.646Z,793.13
2019-02-24T09:43:03.598Z,765.00
2019-02-24T09:44:03.573Z,742.50
2019-02-24T09:45:03.544Z,731.25
2019-02-24T09:46:03.572Z,714.38
2019-02-24T09:47:03.564Z,697.50
2019-02-24T09:48:03.812Z,680.63
2019-02-24T09:49:03.834Z,663.75
2019-02-24T09:50:03.528Z,658.13
2019-02-24T09:51:03.439Z,663.75
2019-02-24T09:52:03.404Z,691.88
2019-02-24T09:53:03.406Z,798.75
2019-02-24T09:54:03.696Z,1006.88
2019-02-24T09:55:03.462Z,1170.00
2019-02-24T09:56:03.359Z,1372.50
2019-02-24T09:57:03.405Z,1361.25
2019-02-24T09:58:03.324Z,1215.00
2019-02-24T09:59:03.318Z,1220.63
2019-02-24T10:01:10.249Z,1518.75
2019-02-24T10:02:03.274Z,1828.13
2019-02-24T10:03:03.276Z,2143.13
2019-02-24T10:04:03.269Z,2210.63
2019-02-24T10:05:03.243Z,2244.38
2019-02-24T10:06:03.219Z,2351.25
2019-02-24T10:07:03.564Z,2435.63
2019-02-24T10:08:03.194Z,2553.75
2019-02-24T10:09:03.372Z,2581.88
2019-02-24T10:10:03.221Z,2660.63
2019-02-24T10:11:03.162Z,2649.38
2019-02-24T10:12:03.138Z,2649.38
2019-02-24T10:13:03.506Z,2660.63
2019-02-24T10:14:03.169Z,2576.25
2019-02-24T10:16:03.180Z,2491.88
2019-02-24T10:17:04.958Z,2514.38
2019-02-24T10:19:03.395Z,2536.88
2019-02-24T10:20:03.347Z,2480.63
2019-02-24T10:21:03.126Z,2227.50
2019-02-24T10:22:03.106Z,1417.50
2019-02-24T10:23:03.066Z,1665.00
2019-02-24T10:24:03.112Z,2351.25
2019-02-24T10:25:05.969Z,2463.75
2019-02-24T10:26:03.087Z,2385.00
2019-02-24T10:27:02.979Z,2306.25
2019-02-24T10:28:02.971Z,2261.25
2019-02-24T10:29:02.936Z,2328.75
2019-02-24T10:31:03.448Z,2430.00
2019-02-24T10:32:02.911Z,2458.13
2019-02-24T10:33:02.898Z,2463.75
2019-02-24T10:34:02.965Z,2396.25
2019-02-24T10:35:03.251Z,2396.25
2019-02-24T10:36:02.869Z,2385.00
2019-02-24T10:37:03.152Z,2379.38
2019-02-24T10:38:02.918Z,2396.25
2019-02-24T10:39:02.829Z,2368.13
2019-02-24T10:40:02.822Z,2362.50
2019-02-24T10:41:02.823Z,2221.88
2019-02-24T10:42:02.830Z,2182.50
2019-02-24T10:43:03.101Z,2283.75
2019-02-24T10:44:02.781Z,2401.88
2019-02-24T10:45:02.919Z,2446.88
2019-02-24T10:47:02.844Z,2463.75
2019-02-24T10:49:03.926Z,2446.88
2019-02-24T10:50:02.843Z,2491.88
2019-02-24T10:51:02.862Z,2458.13
2019-02-24T10:52:02.705Z,2430.00
2019-02-24T10:53:02.684Z,2514.38
2019-02-24T10:54:02.675Z,2407.50
2019-02-24T10:55:02.730Z,2210.63
2019-02-24T10:56:02.954Z,2250.00
2019-02-24T10:58:02.649Z,2233.13
2019-02-24T10:59:02.634Z,2221.88
2019-02-24T11:01:02.659Z,1563.75
2019-02-24T11:02:02.923Z,1254.38
2019-02-24T11:03:02.690Z,2092.50
2019-02-24T11:04:02.576Z,2295.00
2019-02-24T11:05:02.575Z,2317.50
2019-02-24T11:06:02.570Z,2368.13
2019-02-24T11:07:02.627Z,2362.50
2019-02-24T11:08:02.878Z,2390.63
2019-02-24T11:09:02.534Z,2424.38
2019-02-24T11:10:03.936Z,2334.38
2019-02-24T11:11:02.528Z,1597.50
2019-02-24T11:12:02.512Z,1102.50
2019-02-24T11:13:02.542Z,1029.38
2019-02-24T11:14:02.792Z,1012.50
2019-02-24T11:15:02.536Z,1018.13
2019-02-24T11:16:02.532Z,1035.00
2019-02-24T11:17:02.455Z,1029.38
2019-02-24T11:18:02.541Z,1035.00
2019-02-24T11:19:02.497Z,1040.63
2019-02-24T11:20:02.785Z,1035.00
2019-02-24T11:21:02.419Z,1035.00
2019-02-24T11:22:02.534Z,1051.88
2019-02-24T11:23:02.416Z,1080.00
2019-02-24T11:24:02.492Z,1085.63
2019-02-24T11:26:02.689Z,1130.63
2019-02-24T11:28:02.667Z,883.13
2019-02-24T11:29:02.754Z,742.50
2019-02-24T11:30:03.549Z,888.75
2019-02-24T11:31:02.438Z,1164.38
2019-02-24T11:32:02.642Z,1147.50
2019-02-24T11:34:02.422Z,990.00
2019-02-24T11:35:02.353Z,961.88
2019-02-24T11:36:02.956Z,894.38
2019-02-24T11:37:02.511Z,855.00
2019-02-24T11:38:02.703Z,815.63
2019-02-24T11:39:02.343Z,787.50
2019-02-24T11:41:02.282Z,759.38
2019-02-24T11:42:02.273Z,714.38
2019-02-24T11:44:02.807Z,714.38
2019-02-24T11:45:03.233Z,714.38
2019-02-24T11:46:02.245Z,714.38
2019-02-24T11:47:02.467Z,742.50
2019-02-24T11:48:02.295Z,765.00
2019-02-24T11:49:02.208Z,787.50
2019-02-24T11:50:02.610Z,804.38
2019-02-24T11:51:02.298Z,821.25
2019-02-24T11:52:04.085Z,815.63
2019-02-24T11:53:02.210Z,776.25
2019-02-24T11:54:02.242Z,720.00
2019-02-24T11:56:02.555Z,669.38
2019-02-24T11:57:02.165Z,652.50
2019-02-24T11:59:02.144Z,646.88
2019-02-24T12:01:02.154Z,534.38
2019-02-24T12:03:02.520Z,568.13
2019-02-24T12:04:02.116Z,472.50
2019-02-24T12:06:02.390Z,540.00
2019-02-24T12:07:02.167Z,601.88
2019-02-24T12:08:02.188Z,635.63
2019-02-24T12:09:05.247Z,635.63
2019-02-24T12:10:02.288Z,551.25
2019-02-24T12:11:02.488Z,562.50
2019-02-24T12:12:02.177Z,585.00
2019-02-24T12:14:02.164Z,585.00
2019-02-24T12:15:02.876Z,556.88
2019-02-24T12:16:02.039Z,540.00
2019-02-24T12:17:02.133Z,585.00
2019-02-24T12:18:02.071Z,579.38
2019-02-24T12:19:02.041Z,562.50
2019-02-24T12:20:02.845Z,573.75
2019-02-24T12:21:02.049Z,579.38
2019-02-24T12:22:02.273Z,568.13
2019-02-24T12:23:01.985Z,562.50
2019-02-24T12:24:01.962Z,556.88
2019-02-24T12:25:02.582Z,556.88
2019-02-24T12:26:02.466Z,556.88
2019-02-24T12:27:01.936Z,551.25
2019-02-24T12:28:02.542Z,545.63
2019-02-24T12:29:02.955Z,545.63
2019-02-24T12:30:03.664Z,540.00
2019-02-24T12:31:01.996Z,540.00
2019-02-24T12:32:01.969Z,540.00
2019-02-24T12:33:01.918Z,540.00
2019-02-24T12:34:01.901Z,540.00
2019-02-24T12:35:02.203Z,540.00
2019-02-24T12:36:01.998Z,540.00
2019-02-24T12:38:01.920Z,540.00
2019-02-24T12:39:01.938Z,540.00
2019-02-24T12:40:02.188Z,540.00
2019-02-24T12:41:02.206Z,534.38
2019-02-24T12:42:01.849Z,534.38
2019-02-24T12:43:01.852Z,534.38
2019-02-24T12:44:01.907Z,534.38
2019-02-24T12:45:01.844Z,528.75
2019-02-24T12:46:01.861Z,528.75
2019-02-24T12:47:02.114Z,528.75
2019-02-24T12:49:01.865Z,534.38
2019-02-24T12:50:03.606Z,528.75
2019-02-24T12:51:02.247Z,528.75
2019-02-24T12:52:01.842Z,528.75
2019-02-24T12:53:01.924Z,528.75
2019-02-24T12:54:02.107Z,528.75
2019-02-24T12:55:01.759Z,523.13
2019-02-24T12:56:01.796Z,523.13
2019-02-24T12:57:01.723Z,523.13
2019-02-24T12:58:01.825Z,528.75
2019-02-24T12:59:01.787Z,523.13
2019-02-24T13:00:02.888Z,528.75
2019-02-24T13:01:02.085Z,523.13
2019-02-24T13:02:05.749Z,528.75
2019-02-24T13:03:01.721Z,528.75
2019-02-24T13:04:01.751Z,528.75
2019-02-24T13:05:02.002Z,528.75
2019-02-24T13:06:01.787Z,528.75
2019-02-24T13:07:02.083Z,528.75
2019-02-24T13:08:01.739Z,528.75
2019-02-24T13:10:02.099Z,528.75
2019-02-24T13:11:01.861Z,528.75
2019-02-24T13:12:01.878Z,528.75
2019-02-24T13:13:02.479Z,540.00
2019-02-24T13:14:02.096Z,534.38
2019-02-24T13:15:03.330Z,540.00
2019-02-24T13:16:01.856Z,540.00
2019-02-24T13:17:01.661Z,540.00
2019-02-24T13:18:01.623Z,540.00
2019-02-24T13:19:01.705Z,540.00
2019-02-24T13:20:03.248Z,540.00
2019-02-24T13:22:01.617Z,534.38
2019-02-24T13:23:01.972Z,528.75
2019-02-24T13:24:01.541Z,528.75
2019-02-24T13:25:01.609Z,528.75
2019-02-24T13:26:02.445Z,528.75
2019-02-24T13:27:01.653Z,534.38
2019-02-24T13:28:01.619Z,528.75
2019-02-24T13:29:01.581Z,523.13
2019-02-24T13:30:01.856Z,523.13
2019-02-24T13:31:01.541Z,523.13
2019-02-24T13:32:01.991Z,523.13
2019-02-24T13:33:01.494Z,517.50
2019-02-24T13:34:01.464Z,517.50
2019-02-24T13:35:01.491Z,523.13
2019-02-24T13:36:01.484Z,517.50
2019-02-24T13:37:01.541Z,517.50
2019-02-24T13:38:01.902Z,528.75
2019-02-24T13:39:01.574Z,523.13
2019-02-24T13:42:01.436Z,523.13
2019-02-24T13:43:01.729Z,528.75
2019-02-24T13:44:01.776Z,528.75
2019-02-24T13:45:01.405Z,528.75
2019-02-24T13:46:01.406Z,528.75
2019-02-24T13:48:01.470Z,534.38
2019-02-24T13:49:01.452Z,540.00
2019-02-24T13:50:01.442Z,545.63
2019-02-24T13:52:01.723Z,551.25
2019-02-24T13:54:04.674Z,556.88
2019-02-24T13:55:02.053Z,562.50
2019-02-24T13:56:01.552Z,573.75
2019-02-24T13:57:01.359Z,579.38
2019-02-24T13:58:01.317Z,585.00
2019-02-24T13:59:01.598Z,585.00
2019-02-24T14:00:01.468Z,596.25
2019-02-24T14:01:01.370Z,607.50
2019-02-24T14:02:02.003Z,624.38
2019-02-24T14:03:02.033Z,652.50
2019-02-24T14:04:01.289Z,680.63
2019-02-24T14:05:01.288Z,691.88
2019-02-24T14:06:01.725Z,680.63
2019-02-24T14:07:01.233Z,703.13
2019-02-24T14:08:01.251Z,731.25
2019-02-24T14:09:01.425Z,776.25
2019-02-24T14:10:01.393Z,821.25
2019-02-24T14:11:01.243Z,793.13
2019-02-24T14:12:01.629Z,804.38
2019-02-24T14:13:01.512Z,787.50
2019-02-24T14:15:02.482Z,753.75
2019-02-24T14:16:02.719Z,748.13
2019-02-24T14:19:02.502Z,736.88
2019-02-24T14:20:01.433Z,720.00
2019-02-24T14:21:01.129Z,652.50
2019-02-24T14:22:01.135Z,568.13
2019-02-24T14:23:01.196Z,523.13
2019-02-24T14:24:01.242Z,511.88
2019-02-24T14:25:01.961Z,511.88
2019-02-24T14:26:01.106Z,506.25
2019-02-24T14:27:01.227Z,500.63
2019-02-24T14:28:01.147Z,506.25
2019-02-24T14:29:01.281Z,495.00